CheckWX is a tool to help pilots better visualize weather data.  It is not intended as a substitute for an official pre-flight weather briefing.

04:07:32 UTC

SLTR METAR
Teniente Av. Jorge Henrich Arauz Airport
Trinidad, Bolivia
Current

5 hours ago

SLTR 232300Z 00000KT 9999 SCT010 FEW020CB OVC070 24/23 Q1010
Observed
Apr-23 @ 23:00 UTC
Visibility
10,000+ meters
Flight Rules
VFR
Cloud Levels
  • Scattered at 1,000' AGL
  • Few at 2,000' AGL
  • Overcast at 7,000' AGL
Temperature
24°C / 75°F
Dewpoint
23°C / 73°F
Humidity
94%
Altimeter
29.82" Hg
Pressure
1009.92 hPa
Previous

6 hours ago

SLTR 232200Z 00000KT 9999 SCT010 FEW020CB OVC070 24/23 Q1010
Observed
Apr-23 @ 22:00 UTC
Visibility
10,000+ meters
Flight Rules
VFR
Cloud Levels
  • Scattered at 1,000' AGL
  • Few at 2,000' AGL
  • Overcast at 7,000' AGL
Temperature
24°C / 75°F
Dewpoint
23°C / 73°F
Humidity
94%
Altimeter
29.82" Hg
Pressure
1009.92 hPa
Previous

7 hours ago

SLTR 232100Z 13003KT 8000 -RA SCT010 FEW020CB OVC070 24/23 Q1010
Observed
Apr-23 @ 21:00 UTC
Wind
  • 130° at 3 KTS
Visibility
7,998 meters
Flight Rules
MVFR
Conditions
Light Rain
Cloud Levels
  • Scattered at 1,000' AGL
  • Few at 2,000' AGL
  • Overcast at 7,000' AGL
Temperature
24°C / 75°F
Dewpoint
23°C / 73°F
Humidity
94%
Altimeter
29.82" Hg
Pressure
1009.92 hPa